createdAt,value
2022-09-23T00:01:20.793Z,99890.88
2022-09-23T00:03:49.548Z,99893.69
2022-09-23T00:06:19.831Z,99886.22
2022-09-23T00:08:49.765Z,99889.41
2022-09-23T00:11:20.008Z,99889.78
2022-09-23T00:13:49.702Z,99894.19
2022-09-23T00:16:21.521Z,99882.72
2022-09-23T00:18:51.079Z,99888.72
2022-09-23T00:21:20.400Z,99890.25
2022-09-23T00:23:48.563Z,99892.63
2022-09-23T00:26:19.188Z,99890.22
2022-09-23T00:28:47.100Z,99898.13
2022-09-23T00:31:18.071Z,99891.75
2022-09-23T00:33:45.467Z,99898.84
2022-09-23T00:36:16.536Z,99903.19
2022-09-23T00:38:45.425Z,99897.25
2022-09-23T00:41:16.578Z,99902.34
2022-09-23T00:43:48.725Z,99902.34
2022-09-23T00:46:27.868Z,99899.22
2022-09-23T00:49:03.304Z,99903.16
2022-09-23T00:51:36.154Z,99897.59
2022-09-23T00:54:04.095Z,99892.06
2022-09-23T00:56:33.078Z,99901.94
2022-09-23T00:59:01.448Z,99897.59
2022-09-23T01:01:28.981Z,99892.03
2022-09-23T01:03:57.916Z,99890.81
2022-09-23T01:06:25.454Z,99898.34
2022-09-23T01:08:53.199Z,99897.94
2022-09-23T01:11:46.043Z,99897.09
2022-09-23T01:22:31.308Z,99898.25
2022-09-23T01:30:36.681Z,99899.41
2022-09-23T01:33:13.525Z,99899.00
2022-09-23T01:36:19.319Z,99900.56
2022-09-23T01:39:11.527Z,99898.16
2022-09-23T01:44:29.623Z,99899.38
2022-09-23T01:47:08.374Z,99895.03
2022-09-23T01:52:28.786Z,99896.19
2022-09-23T01:55:08.985Z,99888.66
2022-09-23T01:57:43.930Z,99894.97
2022-09-23T02:00:15.514Z,99902.44
2022-09-23T02:02:56.520Z,99899.28
2022-09-23T02:08:15.004Z,99902.00
2022-09-23T02:10:56.420Z,99894.44
2022-09-23T02:13:30.807Z,99892.06
2022-09-23T02:16:02.470Z,99891.66
2022-09-23T02:18:32.840Z,99893.69
2022-09-23T02:21:06.605Z,99891.66
2022-09-23T02:23:42.745Z,99894.81
2022-09-23T02:26:35.809Z,99884.09
2022-09-23T02:31:53.934Z,99891.19
2022-09-23T02:34:43.333Z,99893.97
2022-09-23T02:40:23.794Z,99892.78
2022-09-23T02:45:28.811Z,99894.69
2022-09-23T02:48:04.229Z,99900.63
2022-09-23T02:50:32.867Z,99901.41
2022-09-23T02:53:01.366Z,99897.06
2022-09-23T02:55:33.774Z,99890.72
2022-09-23T02:58:03.329Z,99885.63
2022-09-23T03:00:57.460Z,99880.47
2022-09-23T03:06:16.408Z,99884.50
2022-09-23T03:08:51.395Z,99884.13
2022-09-23T03:11:20.838Z,99874.25
2022-09-23T03:14:17.985Z,99876.22
2022-09-23T03:16:58.599Z,99875.44
2022-09-23T03:19:35.303Z,99874.66
2022-09-23T03:25:07.389Z,99873.81
2022-09-23T03:27:36.865Z,99869.84
2022-09-23T03:30:07.130Z,99873.00
2022-09-23T03:32:36.456Z,99870.59
2022-09-23T03:35:05.783Z,99865.03
2022-09-23T03:37:38.682Z,99869.41
2022-09-23T03:40:18.406Z,99869.41
2022-09-23T03:42:49.130Z,99857.91
2022-09-23T03:45:21.849Z,99863.13
2022-09-23T03:47:49.220Z,99855.59
2022-09-23T03:50:17.739Z,99849.25
2022-09-23T03:52:45.315Z,99856.38
2022-09-23T03:55:12.673Z,99851.19
2022-09-23T03:57:40.025Z,99849.19
2022-09-23T04:00:09.037Z,99848.78
2022-09-23T04:02:40.120Z,99841.59
2022-09-23T04:05:08.728Z,99848.72
2022-09-23T04:07:35.980Z,99847.88
2022-09-23T04:10:05.186Z,99866.03
2022-09-23T04:12:32.437Z,99860.00
2022-09-23T04:15:00.363Z,99868.72
2022-09-23T04:17:27.660Z,99867.84
2022-09-23T04:19:55.061Z,99870.56
2022-09-23T04:22:22.562Z,99859.84
2022-09-23T04:24:49.917Z,99862.56
2022-09-23T04:27:17.246Z,99864.50
2022-09-23T04:29:44.885Z,99868.44
2022-09-23T04:32:12.193Z,99861.25
2022-09-23T04:34:39.521Z,99857.63
2022-09-23T04:37:06.924Z,99863.53
2022-09-23T04:39:34.322Z,99864.69
2022-09-23T04:42:01.625Z,99864.63
2022-09-23T04:44:29.827Z,99857.81
2022-09-23T04:46:57.237Z,99862.44
2022-09-23T04:49:24.802Z,99856.78
2022-09-23T04:51:52.074Z,99854.25
2022-09-23T04:54:19.432Z,99846.22
2022-09-23T04:56:46.639Z,99844.78
2022-09-23T04:59:13.983Z,99835.41
2022-09-23T05:01:41.854Z,99844.25
2022-09-23T05:04:14.169Z,99849.72
2022-09-23T05:06:44.213Z,99845.66
2022-09-23T05:09:16.301Z,99839.19
2022-09-23T05:11:44.220Z,99848.44
2022-09-23T05:14:12.367Z,99849.41
2022-09-23T05:16:39.711Z,99852.41
2022-09-23T05:19:07.165Z,99847.13
2022-09-23T05:21:34.483Z,99854.91
2022-09-23T05:24:02.300Z,99856.63
2022-09-23T05:26:32.173Z,99853.34
2022-09-23T05:29:00.547Z,99851.63
2022-09-23T05:31:30.415Z,99853.28
2022-09-23T05:34:00.784Z,99860.38
2022-09-23T05:36:32.122Z,99859.97
2022-09-23T05:39:03.987Z,99862.94
2022-09-23T05:41:31.512Z,99858.22
2022-09-23T05:44:01.874Z,99841.53
2022-09-23T05:46:32.422Z,99838.22
2022-09-23T05:49:02.995Z,99833.34
2022-09-23T05:51:32.101Z,99830.50
2022-09-23T05:54:00.780Z,99820.00
2022-09-23T05:56:29.503Z,99818.69
2022-09-23T05:58:59.437Z,99812.25
2022-09-23T06:01:29.162Z,99816.16
2022-09-23T06:03:58.591Z,99816.94
2022-09-23T06:06:30.532Z,99815.72
2022-09-23T06:08:59.561Z,99830.00
2022-09-23T06:11:30.141Z,99826.31
2022-09-23T06:14:02.546Z,99826.22
2022-09-23T06:16:32.545Z,99834.31
2022-09-23T06:19:06.469Z,99820.03
2022-09-23T06:21:36.577Z,99828.13
2022-09-23T06:24:05.348Z,99823.72
2022-09-23T06:26:35.450Z,99818.78
2022-09-23T06:29:03.932Z,99811.59
2022-09-23T06:31:32.354Z,99810.69
2022-09-23T06:34:09.755Z,99814.69
2022-09-23T06:36:44.058Z,99817.13
2022-09-23T06:39:13.831Z,99824.63
2022-09-23T06:41:41.313Z,99829.94
2022-09-23T06:44:14.109Z,99837.47
2022-09-23T06:46:41.915Z,99833.31
2022-09-23T06:49:09.558Z,99835.75
2022-09-23T06:51:36.946Z,99836.00
2022-09-23T06:54:04.741Z,99851.66
2022-09-23T06:56:36.339Z,99843.25
2022-09-23T06:59:06.872Z,99834.91
2022-09-23T07:01:35.341Z,99842.56
2022-09-23T07:04:02.856Z,99842.16
2022-09-23T07:06:30.259Z,99845.75
2022-09-23T07:08:57.781Z,99842.97
2022-09-23T07:11:25.067Z,99836.59
2022-09-23T07:13:52.657Z,99832.94
2022-09-23T07:16:20.091Z,99829.94
2022-09-23T07:18:47.617Z,99827.00
2022-09-23T07:21:18.015Z,99819.75
2022-09-23T07:23:47.774Z,99829.31
2022-09-23T07:26:16.542Z,99812.72
2022-09-23T07:28:43.900Z,99814.28
2022-09-23T07:31:14.697Z,99807.00
2022-09-23T07:33:44.465Z,99802.34
2022-09-23T07:36:18.248Z,99800.34
2022-09-23T07:38:47.576Z,99797.22
2022-09-23T07:41:18.024Z,99800.66
2022-09-23T07:43:46.547Z,99801.13
2022-09-23T07:46:17.635Z,99791.09
2022-09-23T07:48:46.149Z,99792.84
2022-09-23T07:51:20.343Z,99788.13
2022-09-23T07:53:49.361Z,99785.06
2022-09-23T07:56:19.333Z,99789.16
2022-09-23T07:59:00.429Z,99786.50
2022-09-23T08:01:34.473Z,99800.47
2022-09-23T08:04:10.662Z,99795.91
2022-09-23T08:06:45.637Z,99796.81
2022-09-23T08:09:13.278Z,99798.75
2022-09-23T08:11:42.381Z,99790.72
2022-09-23T08:14:12.647Z,99788.66
2022-09-23T08:16:41.186Z,99805.22
2022-09-23T08:19:08.714Z,99795.25
2022-09-23T08:21:37.909Z,99795.31
2022-09-23T08:24:07.863Z,99796.91
2022-09-23T08:26:36.105Z,99788.22
2022-09-23T08:29:03.763Z,99776.97
2022-09-23T08:31:31.400Z,99764.19
2022-09-23T08:33:59.801Z,99758.50
2022-09-23T08:36:27.606Z,99752.47
2022-09-23T08:38:55.762Z,99750.38
2022-09-23T08:44:04.863Z,99770.06
2022-09-23T08:46:37.961Z,99760.06
2022-09-23T08:49:07.709Z,99762.72
2022-09-23T08:51:41.451Z,99757.72
2022-09-23T08:54:13.270Z,99766.19
2022-09-23T08:56:44.597Z,99768.47
2022-09-23T08:59:21.534Z,99767.41
2022-09-23T09:01:54.607Z,99769.19
2022-09-23T09:07:37.960Z,99761.00
2022-09-23T09:12:46.828Z,99769.72
2022-09-23T09:23:23.569Z,99767.00
2022-09-23T09:26:02.971Z,99767.00
2022-09-23T09:28:38.334Z,99756.84
2022-09-23T15:15:48.416Z,99573.78
2022-09-23T15:18:24.019Z,99570.31
2022-09-23T15:20:54.499Z,99570.88
2022-09-23T15:26:18.426Z,99565.63
2022-09-23T15:28:47.034Z,99561.06
2022-09-23T15:31:16.396Z,99564.38
2022-09-23T15:33:47.837Z,99567.28
2022-09-23T15:36:19.401Z,99563.81
2022-09-23T15:38:47.758Z,99562.00
2022-09-23T15:41:16.690Z,99555.34
2022-09-23T15:43:44.610Z,99560.97
2022-09-23T15:46:18.928Z,99563.56
2022-09-23T15:51:32.627Z,99572.50
2022-09-23T15:54:05.307Z,99572.72
2022-09-23T15:56:34.666Z,99554.66
2022-09-23T15:59:02.057Z,99559.56
2022-09-23T16:01:32.182Z,99564.41
2022-09-23T16:04:01.489Z,99565.28
2022-09-23T16:06:29.563Z,99568.97
2022-09-23T16:08:57.294Z,99559.03
2022-09-23T16:11:32.037Z,99564.22
2022-09-23T16:14:00.940Z,99556.66
2022-09-23T16:16:28.746Z,99546.31
2022-09-23T16:18:56.574Z,99547.53
2022-09-23T16:21:26.756Z,99540.44
2022-09-23T16:23:55.191Z,99538.00
2022-09-23T16:26:25.994Z,99541.47
2022-09-23T16:28:55.241Z,99548.59
2022-09-23T16:31:25.917Z,99543.41
2022-09-23T16:33:54.049Z,99538.16
2022-09-23T16:36:31.507Z,99528.19
2022-09-23T16:39:01.137Z,99533.63
2022-09-23T16:41:31.719Z,99528.84
2022-09-23T16:44:01.263Z,99524.06
2022-09-23T16:46:29.520Z,99510.16
2022-09-23T16:48:57.865Z,99511.72
2022-09-23T17:54:04.353Z,99440.28
2022-09-23T17:56:37.447Z,99443.53
2022-09-23T17:59:05.396Z,99441.94
2022-09-23T18:01:33.269Z,99437.97
2022-09-23T18:04:02.135Z,99437.97
2022-09-23T18:06:40.028Z,99433.50
2022-09-23T18:09:10.336Z,99433.06
2022-09-23T18:11:40.843Z,99433.06
2022-09-23T18:14:14.269Z,99431.84
2022-09-23T18:16:44.435Z,99424.31
2022-09-23T18:19:15.240Z,99414.41
2022-09-23T18:21:45.195Z,99412.41
2022-09-23T18:24:32.464Z,99404.06
2022-09-23T18:27:01.324Z,99400.81
2022-09-23T18:29:29.125Z,99396.50
2022-09-23T18:31:57.103Z,99399.59
2022-09-23T18:34:24.605Z,99389.25
2022-09-23T18:36:52.124Z,99395.25
2022-09-23T18:39:23.701Z,99383.34
2022-09-23T18:41:52.855Z,99384.59
2022-09-23T18:44:20.474Z,99393.38
2022-09-23T18:46:48.185Z,99391.03
2022-09-23T18:49:35.505Z,99389.47
2022-09-23T18:52:03.006Z,99383.94
2022-09-23T18:54:30.782Z,99375.22
2022-09-23T18:56:59.700Z,99379.56
2022-09-23T18:59:30.188Z,99371.25
2022-09-23T19:01:58.286Z,99375.22
2022-09-23T19:04:27.457Z,99366.09
2022-09-23T19:06:56.850Z,99364.53
2022-09-23T19:09:24.733Z,99365.00
2022-09-23T19:11:53.095Z,99351.19
2022-09-23T19:14:21.044Z,99354.84
2022-09-23T19:16:49.816Z,99341.06
2022-09-23T19:19:17.542Z,99344.75
2022-09-23T19:21:45.139Z,99345.59
2022-09-23T19:24:16.339Z,99338.94
2022-09-23T19:26:44.435Z,99339.38
2022-09-23T19:29:16.556Z,99326.69
2022-09-23T19:31:44.415Z,99322.69
2022-09-23T19:34:15.187Z,99325.91
2022-09-23T19:36:44.819Z,99315.56
2022-09-23T19:39:22.601Z,99307.69
2022-09-23T19:41:51.007Z,99304.16
2022-09-23T19:44:20.375Z,99297.81
2022-09-23T19:46:55.067Z,99299.00
2022-09-23T19:49:25.005Z,99290.34
2022-09-23T19:51:56.163Z,99288.78
2022-09-23T19:54:26.869Z,99279.69
2022-09-23T19:56:54.808Z,99276.13
2022-09-23T19:59:22.225Z,99273.00
2022-09-23T20:01:49.693Z,99268.69
2022-09-23T20:04:17.553Z,99267.91
2022-09-23T20:06:46.257Z,99260.41
2022-09-23T20:09:14.083Z,99254.88
2022-09-23T20:11:43.353Z,99262.88
2022-09-23T20:14:12.020Z,99257.09
2022-09-23T20:16:39.420Z,99243.31
2022-09-23T20:19:06.921Z,99241.38
2022-09-23T20:21:34.641Z,99243.84
2022-09-23T20:24:05.515Z,99244.28
2022-09-23T20:26:52.841Z,99238.41
2022-09-23T20:29:20.190Z,99235.69
2022-09-23T20:31:47.949Z,99233.38
2022-09-23T20:34:15.413Z,99228.25
2022-09-23T20:36:42.933Z,99231.94
2022-09-23T20:39:10.561Z,99223.72
2022-09-23T20:41:39.558Z,99215.38
2022-09-23T20:44:10.583Z,99217.03
2022-09-23T20:46:38.084Z,99221.00
2022-09-23T20:49:09.020Z,99215.91
2022-09-23T20:51:37.376Z,99209.59
2022-09-23T20:54:04.804Z,99209.22
2022-09-23T20:56:32.268Z,99206.91
2022-09-23T20:59:01.195Z,99207.34
2022-09-23T21:01:28.821Z,99192.34
2022-09-23T21:03:56.213Z,99199.56
2022-09-23T21:06:26.315Z,99197.88
2022-09-23T21:08:55.174Z,99185.69
2022-09-23T21:11:22.965Z,99184.56
2022-09-23T21:13:51.731Z,99184.22
2022-09-23T21:16:22.794Z,99186.66
2022-09-23T21:18:51.863Z,99180.34
2022-09-23T21:21:22.360Z,99174.44
2022-09-23T21:23:50.883Z,99164.56
2022-09-23T21:26:23.569Z,99168.09
2022-09-23T21:28:53.390Z,99164.56
2022-09-23T21:31:23.821Z,99149.47
2022-09-23T21:33:54.222Z,99155.44
2022-09-23T21:36:21.945Z,99151.88
2022-09-23T21:38:49.774Z,99146.34
2022-09-23T21:41:17.973Z,99144.34
2022-09-23T21:43:45.849Z,99142.34
2022-09-23T21:46:14.922Z,99134.03
2022-09-23T21:48:43.093Z,99124.13
2022-09-23T21:51:13.565Z,99129.69
2022-09-23T21:53:42.538Z,99119.81
2022-09-23T21:56:20.499Z,99112.28
2022-09-23T21:58:49.168Z,99101.59
2022-09-23T22:01:19.491Z,99107.16
2022-09-23T22:06:32.701Z,99091.72
2022-09-23T22:09:02.358Z,99088.63
2022-09-23T22:11:51.934Z,99078.28
2022-09-23T22:14:20.958Z,99078.28
2022-09-23T22:16:48.253Z,99080.63
2022-09-23T22:19:15.818Z,99074.28
2022-09-23T22:21:45.653Z,99071.50
2022-09-23T22:24:13.788Z,99063.66
2022-09-23T22:26:43.069Z,99059.31
2022-09-23T22:29:33.649Z,99059.31
2022-09-23T22:32:22.430Z,99054.19
2022-09-23T22:34:51.482Z,99043.53
2022-09-23T22:37:21.850Z,99040.44
2022-09-23T22:39:49.266Z,99043.22
2022-09-23T22:42:16.517Z,99043.22
2022-09-23T22:44:43.744Z,99034.88
2022-09-23T22:47:11.192Z,99027.00
2022-09-23T22:49:38.562Z,99029.75
2022-09-23T22:52:11.479Z,99017.88
2022-09-23T22:54:38.845Z,99017.88
2022-09-23T22:57:08.491Z,99019.09
2022-09-23T22:59:37.164Z,99010.78
2022-09-23T23:02:05.308Z,99005.69
2022-09-23T23:04:34.050Z,99004.91
2022-09-23T23:07:01.358Z,98997.47
2022-09-23T23:09:28.552Z,98994.34
2022-09-23T23:11:55.820Z,98990.81
2022-09-23T23:14:23.041Z,98980.47
2022-09-23T23:16:50.421Z,98974.94
2022-09-23T23:19:19.440Z,98977.28
2022-09-23T23:21:46.791Z,98974.50
2022-09-23T23:24:19.080Z,98969.72
2022-09-23T23:26:46.902Z,98961.84
2022-09-23T23:29:16.285Z,98966.28
2022-09-23T23:31:44.599Z,98961.50
2022-09-23T23:34:14.767Z,98952.41
2022-09-23T23:36:43.811Z,98950.41
2022-09-23T23:39:11.488Z,98935.75
2022-09-23T23:41:40.334Z,98938.53
2022-09-23T23:44:08.072Z,98933.75
2022-09-23T23:46:37.464Z,98927.44
2022-09-23T23:49:05.336Z,98911.25
2022-09-23T23:51:32.792Z,98915.59
2022-09-23T23:54:00.386Z,98910.47
2022-09-23T23:56:28.155Z,98899.81
2022-09-23T23:58:58.387Z,98900.59
